Check out our new PWSWeather beta!
PWSweather.com
Personal Weather Stations
Station Observations
URBANDALE
Westwind Acres And Meredith Hills, Urbandale, IA 50322

Westwind Acres And Meredith HillsUrbandale, IA 50322

Lat: 41.643, Lon: -93.709

Elevation: 928

Station Type:

http://urbandaleweather.com

High Low Average
Temperature 43.2°F6.2°C 18.7°F-7.4°C 31.4°F-0.3°C
Dew Point 34.0°F1.1°C 15.3°F-9.3°C 25.4°F-3.7°C
Winds 4.9 mph 7.9 kmh Calm Calm 2.0 mph SW3.2 kmh SW
Wind Gusts 15.0 mph24.1 kmh -- 6.0 mph9.7 kmh
Humidity 87% 69% 78%
Pressure 30.15 in1021.0 mb 29.81 in1009.5 mb -
Precipitation 0.03 in0.8 mm - -
Hour Temp Dew Point Humidity Winds Wind Gusts Pressure Precip Precip Rate Daily Precip Total
12:00 AM 29.3°F-1.5°C 21.7°F-5.7°C 73% 0.9 mph SSE1.4 kmh SSE 4.0 mph6.4 kmh 30.02 in1016.6 mb 0.00 in0.0 mm 0.00 in0.0 mm 0.00 in0.0 mm
12:05 AM 29.5°F-1.4°C 21.9°F-5.6°C 73% 0.9 mph SE1.4 kmh SE 5.0 mph8.0 kmh 30.01 in1016.3 mb 0.00 in0.0 mm 0.00 in0.0 mm 0.00 in0.0 mm
12:10 AM 29.5°F-1.4°C 21.9°F-5.6°C 73% 2.0 mph SE3.2 kmh SE 5.0 mph8.0 kmh 30.02 in1016.6 mb 0.00 in0.0 mm 0.00 in0.0 mm 0.00 in0.0 mm
12:15 AM 29.5°F-1.4°C 21.9°F-5.6°C 73% 0.9 mph SE1.4 kmh SE 4.0 mph6.4 kmh 30.01 in1016.3 mb 0.00 in0.0 mm 0.00 in0.0 mm 0.00 in0.0 mm
12:20 AM 29.5°F-1.4°C 22.3°F-5.4°C 74% 0.9 mph SE1.4 kmh SE 6.9 mph11.1 kmh 30.00 in1015.9 mb 0.00 in0.0 mm 0.00 in0.0 mm 0.00 in0.0 mm
12:25 AM 29.7°F-1.3°C 22.5°F-5.3°C 74% 2.0 mph SE3.2 kmh SE 6.0 mph9.7 kmh 29.99 in1015.6 mb 0.00 in0.0 mm 0.00 in0.0 mm 0.00 in0.0 mm
12:30 AM 29.5°F-1.4°C 22.3°F-5.4°C 74% 2.0 mph SSE3.2 kmh SSE 6.9 mph11.1 kmh 29.99 in1015.6 mb 0.00 in0.0 mm 0.00 in0.0 mm 0.00 in0.0 mm
12:35 AM 29.5°F-1.4°C 22.3°F-5.4°C 74% 2.0 mph SE3.2 kmh SE 6.0 mph9.7 kmh 29.99 in1015.6 mb 0.00 in0.0 mm 0.00 in0.0 mm 0.00 in0.0 mm
12:40 AM 29.5°F-1.4°C 22.3°F-5.4°C 74% 2.0 mph SE3.2 kmh SE 4.0 mph6.4 kmh 29.99 in1015.6 mb 0.00 in0.0 mm 0.00 in0.0 mm 0.00 in0.0 mm
12:45 AM 29.5°F-1.4°C 22.3°F-5.4°C 74% 0.9 mph SE1.4 kmh SE 2.9 mph4.7 kmh 29.98 in1015.2 mb 0.00 in0.0 mm 0.00 in0.0 mm 0.00 in0.0 mm
12:50 AM 29.5°F-1.4°C 22.3°F-5.4°C 74% 0.9 mph SSE1.4 kmh SSE 5.0 mph8.0 kmh 29.98 in1015.2 mb 0.00 in0.0 mm 0.00 in0.0 mm 0.00 in0.0 mm
12:55 AM 29.5°F-1.4°C 22.5°F-5.3°C 75% 0.9 mph SE1.4 kmh SE 4.0 mph6.4 kmh 29.98 in1015.2 mb 0.00 in0.0 mm 0.00 in0.0 mm 0.00 in0.0 mm
01:00 AM 29.5°F-1.4°C 22.5°F-5.3°C 75% 0.9 mph SE1.4 kmh SE 2.9 mph4.7 kmh 29.97 in1014.9 mb 0.00 in0.0 mm 0.00 in0.0 mm 0.00 in0.0 mm
01:05 AM 29.7°F-1.3°C 22.6°F-5.2°C 75% 2.0 mph SSE3.2 kmh SSE 6.0 mph9.7 kmh 29.97 in1014.9 mb 0.00 in0.0 mm 0.00 in0.0 mm 0.00 in0.0 mm
01:10 AM 29.8°F-1.2°C 22.8°F-5.1°C 75% 2.0 mph S3.2 kmh S 6.0 mph9.7 kmh 29.97 in1014.9 mb 0.00 in0.0 mm 0.00 in0.0 mm 0.00 in0.0 mm
01:15 AM 29.8°F-1.2°C 22.6°F-5.2°C 74% 0.9 mph SSE1.4 kmh SSE 4.0 mph6.4 kmh 29.97 in1014.9 mb 0.00 in0.0 mm 0.00 in0.0 mm 0.00 in0.0 mm
01:20 AM 30.0°F-1.1°C 22.8°F-5.1°C 74% 2.0 mph SE3.2 kmh SE 7.0 mph11.3 kmh 29.97 in1014.9 mb 0.00 in0.0 mm 0.00 in0.0 mm 0.00 in0.0 mm
01:25 AM 30.0°F-1.1°C 23.0°F-5.0°C 75% 2.0 mph SSE3.2 kmh SSE 4.9 mph7.9 kmh 29.97 in1014.9 mb 0.00 in0.0 mm 0.00 in0.0 mm 0.00 in0.0 mm
01:30 AM 30.0°F-1.1°C 23.0°F-5.0°C 75% 0.9 mph ESE1.4 kmh ESE 2.9 mph4.7 kmh 29.96 in1014.6 mb 0.00 in0.0 mm 0.00 in0.0 mm 0.00 in0.0 mm
01:35 AM 30.2°F-1.0°C 23.0°F-5.0°C 74% 0.9 mph SSE1.4 kmh SSE 4.0 mph6.4 kmh 29.96 in1014.6 mb 0.00 in0.0 mm 0.00 in0.0 mm 0.00 in0.0 mm
01:40 AM 30.4°F-0.9°C 23.2°F-4.9°C 74% 2.0 mph S3.2 kmh S 6.0 mph9.7 kmh 29.95 in1014.2 mb 0.00 in0.0 mm 0.00 in0.0 mm 0.00 in0.0 mm
01:45 AM 30.6°F-0.8°C 23.2°F-4.9°C 74% 2.0 mph SE3.2 kmh SE 6.0 mph9.7 kmh 29.95 in1014.2 mb 0.00 in0.0 mm 0.00 in0.0 mm 0.00 in0.0 mm
01:50 AM 30.6°F-0.8°C 23.2°F-4.9°C 74% 2.9 mph SSW4.7 kmh SSW 6.0 mph9.7 kmh 29.94 in1013.9 mb 0.00 in0.0 mm 0.00 in0.0 mm 0.00 in0.0 mm
01:55 AM 30.7°F-0.7°C 23.4°F-4.8°C 74% 2.9 mph SSE4.7 kmh SSE 8.1 mph13.0 kmh 29.94 in1013.9 mb 0.00 in0.0 mm 0.00 in0.0 mm 0.00 in0.0 mm
02:00 AM 30.9°F-0.6°C 23.4°F-4.8°C 73% 2.9 mph SE4.7 kmh SE 12.1 mph19.5 kmh 29.93 in1013.5 mb 0.00 in0.0 mm 0.00 in0.0 mm 0.00 in0.0 mm
02:05 AM 30.9°F-0.6°C 23.5°F-4.7°C 74% 2.0 mph SSE3.2 kmh SSE 10.1 mph16.3 kmh 29.93 in1013.5 mb 0.00 in0.0 mm 0.00 in0.0 mm 0.00 in0.0 mm
02:10 AM 31.1°F-0.5°C 23.5°F-4.7°C 73% 2.9 mph SE4.7 kmh SE 10.1 mph16.3 kmh 29.93 in1013.5 mb 0.00 in0.0 mm 0.00 in0.0 mm 0.00 in0.0 mm
02:15 AM 31.1°F-0.5°C 23.5°F-4.7°C 73% 2.9 mph S4.7 kmh S 4.9 mph7.9 kmh 29.93 in1013.5 mb 0.00 in0.0 mm 0.00 in0.0 mm 0.00 in0.0 mm
02:20 AM 31.1°F-0.5°C 23.5°F-4.7°C 73% 2.0 mph SE3.2 kmh SE 6.0 mph9.7 kmh 29.93 in1013.5 mb 0.00 in0.0 mm 0.00 in0.0 mm 0.00 in0.0 mm
02:25 AM 31.3°F-0.4°C 23.7°F-4.6°C 73% 2.0 mph E3.2 kmh E 8.1 mph13.0 kmh 29.92 in1013.2 mb 0.00 in0.0 mm 0.00 in0.0 mm 0.00 in0.0 mm
02:30 AM 31.3°F-0.4°C 23.7°F-4.6°C 73% 2.9 mph SSW4.7 kmh SSW 8.1 mph13.0 kmh 29.92 in1013.2 mb 0.00 in0.0 mm 0.00 in0.0 mm 0.00 in0.0 mm
02:35 AM 31.5°F-0.3°C 23.9°F-4.5°C 73% 2.9 mph SE4.7 kmh SE 6.9 mph11.1 kmh 29.92 in1013.2 mb 0.00 in0.0 mm 0.00 in0.0 mm 0.00 in0.0 mm
02:40 AM 31.5°F-0.3°C 23.9°F-4.5°C 73% 2.9 mph S4.7 kmh S 8.1 mph13.0 kmh 29.92 in1013.2 mb 0.00 in0.0 mm 0.00 in0.0 mm 0.00 in0.0 mm
02:45 AM 31.6°F-0.2°C 23.9°F-4.5°C 73% 2.0 mph ESE3.2 kmh ESE 10.1 mph16.3 kmh 29.92 in1013.2 mb 0.00 in0.0 mm 0.00 in0.0 mm 0.00 in0.0 mm
02:50 AM 31.6°F-0.2°C 23.9°F-4.5°C 73% 2.9 mph SE4.7 kmh SE 10.1 mph16.3 kmh 29.91 in1012.9 mb 0.00 in0.0 mm 0.00 in0.0 mm 0.00 in0.0 mm
02:55 AM 31.8°F-0.1°C 23.9°F-4.5°C 72% 2.9 mph SE4.7 kmh SE 6.9 mph11.1 kmh 29.91 in1012.9 mb 0.00 in0.0 mm 0.00 in0.0 mm 0.00 in0.0 mm
03:00 AM 32.0°F0.0°C 24.1°F-4.4°C 72% 2.0 mph SSE3.2 kmh SSE 6.9 mph11.1 kmh 29.91 in1012.9 mb 0.00 in0.0 mm 0.00 in0.0 mm 0.00 in0.0 mm
03:05 AM 32.2°F0.1°C 24.3°F-4.3°C 72% 2.0 mph S3.2 kmh S 6.9 mph11.1 kmh 29.91 in1012.9 mb 0.00 in0.0 mm 0.00 in0.0 mm 0.00 in0.0 mm
03:10 AM 32.4°F0.2°C 24.3°F-4.3°C 72% 2.0 mph S3.2 kmh S 8.9 mph14.3 kmh 29.91 in1012.9 mb 0.00 in0.0 mm 0.00 in0.0 mm 0.00 in0.0 mm
03:15 AM 32.5°F0.3°C 24.4°F-4.2°C 72% 2.9 mph SSE4.7 kmh SSE 6.0 mph9.7 kmh 29.90 in1012.5 mb 0.00 in0.0 mm 0.00 in0.0 mm 0.00 in0.0 mm
03:20 AM 32.9°F0.5°C 24.6°F-4.1°C 71% 2.9 mph SSE4.7 kmh SSE 9.0 mph14.5 kmh 29.90 in1012.5 mb 0.00 in0.0 mm 0.00 in0.0 mm 0.00 in0.0 mm
03:25 AM 33.1°F0.6°C 24.6°F-4.1°C 71% 2.9 mph S4.7 kmh S 6.9 mph11.1 kmh 29.90 in1012.5 mb 0.00 in0.0 mm 0.00 in0.0 mm 0.00 in0.0 mm
03:30 AM 33.3°F0.7°C 24.8°F-4.0°C 71% 2.9 mph S4.7 kmh S 11.0 mph17.7 kmh 29.89 in1012.2 mb 0.00 in0.0 mm 0.00 in0.0 mm 0.00 in0.0 mm
03:35 AM 33.3°F0.7°C 24.8°F-4.0°C 71% 4.0 mph SE6.4 kmh SE 8.1 mph13.0 kmh 29.89 in1012.2 mb 0.00 in0.0 mm 0.00 in0.0 mm 0.00 in0.0 mm
03:40 AM 33.3°F0.7°C 24.8°F-4.0°C 71% 4.0 mph S6.4 kmh S 11.0 mph17.7 kmh 29.89 in1012.2 mb 0.00 in0.0 mm 0.00 in0.0 mm 0.00 in0.0 mm
03:45 AM 33.3°F0.7°C 24.8°F-4.0°C 71% 4.0 mph SE6.4 kmh SE 6.0 mph9.7 kmh 29.89 in1012.2 mb 0.00 in0.0 mm 0.00 in0.0 mm 0.00 in0.0 mm
03:50 AM 33.1°F0.6°C 24.6°F-4.1°C 71% 2.9 mph ESE4.7 kmh ESE 6.0 mph9.7 kmh 29.88 in1011.9 mb 0.00 in0.0 mm 0.00 in0.0 mm 0.00 in0.0 mm
03:55 AM 33.1°F0.6°C 24.6°F-4.1°C 71% 2.9 mph S4.7 kmh S 6.9 mph11.1 kmh 29.88 in1011.9 mb 0.00 in0.0 mm 0.00 in0.0 mm 0.00 in0.0 mm
04:00 AM 33.1°F0.6°C 25.0°F-3.9°C 72% 2.9 mph SE4.7 kmh SE 6.0 mph9.7 kmh 29.88 in1011.9 mb 0.00 in0.0 mm 0.00 in0.0 mm 0.00 in0.0 mm
04:05 AM 33.1°F0.6°C 25.0°F-3.9°C 72% 2.9 mph SSE4.7 kmh SSE 8.1 mph13.0 kmh 29.87 in1011.5 mb 0.00 in0.0 mm 0.00 in0.0 mm 0.00 in0.0 mm
04:10 AM 33.1°F0.6°C 25.0°F-3.9°C 72% 2.9 mph SE4.7 kmh SE 6.0 mph9.7 kmh 29.88 in1011.9 mb 0.00 in0.0 mm 0.00 in0.0 mm 0.00 in0.0 mm
04:15 AM 33.1°F0.6°C 25.0°F-3.9°C 72% 2.9 mph SE4.7 kmh SE 6.9 mph11.1 kmh 29.88 in1011.9 mb 0.00 in0.0 mm 0.00 in0.0 mm 0.00 in0.0 mm
04:20 AM 33.3°F0.7°C 25.2°F-3.8°C 72% 2.9 mph SE4.7 kmh SE 6.0 mph9.7 kmh 29.87 in1011.5 mb 0.00 in0.0 mm 0.00 in0.0 mm 0.00 in0.0 mm
04:25 AM 33.3°F0.7°C 25.2°F-3.8°C 72% 2.9 mph SSE4.7 kmh SSE 6.0 mph9.7 kmh 29.87 in1011.5 mb 0.00 in0.0 mm 0.00 in0.0 mm 0.00 in0.0 mm
04:30 AM 33.4°F0.8°C 25.3°F-3.7°C 72% 2.9 mph SSE4.7 kmh SSE 6.9 mph11.1 kmh 29.87 in1011.5 mb 0.00 in0.0 mm 0.00 in0.0 mm 0.00 in0.0 mm
04:35 AM 33.4°F0.8°C 25.3°F-3.7°C 72% 2.9 mph SE4.7 kmh SE 6.0 mph9.7 kmh 29.87 in1011.5 mb 0.00 in0.0 mm 0.00 in0.0 mm 0.00 in0.0 mm
04:40 AM 33.6°F0.9°C 25.5°F-3.6°C 72% 2.0 mph SSE3.2 kmh SSE 7.0 mph11.3 kmh 29.87 in1011.5 mb 0.00 in0.0 mm 0.00 in0.0 mm 0.00 in0.0 mm
04:45 AM 33.6°F0.9°C 25.5°F-3.6°C 72% 2.0 mph SSE3.2 kmh SSE 6.9 mph11.1 kmh 29.86 in1011.2 mb 0.00 in0.0 mm 0.00 in0.0 mm 0.00 in0.0 mm
04:50 AM 33.6°F0.9°C 25.5°F-3.6°C 72% 2.0 mph SSW3.2 kmh SSW 4.9 mph7.9 kmh 29.86 in1011.2 mb 0.00 in0.0 mm 0.00 in0.0 mm 0.00 in0.0 mm
04:55 AM 33.6°F0.9°C 25.9°F-3.4°C 73% 2.0 mph ESE3.2 kmh ESE 4.9 mph7.9 kmh 29.85 in1010.8 mb 0.00 in0.0 mm 0.00 in0.0 mm 0.00 in0.0 mm
05:00 AM 33.6°F0.9°C 25.9°F-3.4°C 73% 2.0 mph SSW3.2 kmh SSW 6.0 mph9.7 kmh 29.85 in1010.8 mb 0.00 in0.0 mm 0.00 in0.0 mm 0.00 in0.0 mm
05:05 AM 33.8°F1.0°C 26.1°F-3.3°C 73% 2.0 mph S3.2 kmh S 6.0 mph9.7 kmh 29.85 in1010.8 mb 0.00 in0.0 mm 0.00 in0.0 mm 0.00 in0.0 mm
05:10 AM 34.0°F1.1°C 26.2°F-3.2°C 73% 2.0 mph SSE3.2 kmh SSE 6.9 mph11.1 kmh 29.85 in1010.8 mb 0.00 in0.0 mm 0.00 in0.0 mm 0.00 in0.0 mm
05:15 AM 34.0°F1.1°C 26.2°F-3.2°C 73% 2.0 mph SE3.2 kmh SE 6.0 mph9.7 kmh 29.85 in1010.8 mb 0.00 in0.0 mm 0.00 in0.0 mm 0.00 in0.0 mm
05:20 AM 34.2°F1.2°C 26.4°F-3.1°C 73% 2.0 mph SSE3.2 kmh SSE 6.9 mph11.1 kmh 29.84 in1010.5 mb 0.00 in0.0 mm 0.00 in0.0 mm 0.00 in0.0 mm
05:25 AM 34.2°F1.2°C 26.4°F-3.1°C 73% 2.0 mph SE3.2 kmh SE 6.0 mph9.7 kmh 29.84 in1010.5 mb 0.00 in0.0 mm 0.00 in0.0 mm 0.00 in0.0 mm
05:30 AM 34.3°F1.3°C 26.6°F-3.0°C 73% 2.9 mph SE4.7 kmh SE 9.0 mph14.5 kmh 29.83 in1010.2 mb 0.00 in0.0 mm 0.00 in0.0 mm 0.00 in0.0 mm
05:35 AM 34.3°F1.3°C 26.6°F-3.0°C 73% 2.9 mph S4.7 kmh S 8.1 mph13.0 kmh 29.84 in1010.5 mb 0.00 in0.0 mm 0.00 in0.0 mm 0.00 in0.0 mm
05:40 AM 34.3°F1.3°C 26.6°F-3.0°C 73% 2.9 mph SSE4.7 kmh SSE 8.1 mph13.0 kmh 29.83 in1010.2 mb 0.00 in0.0 mm 0.00 in0.0 mm 0.00 in0.0 mm
05:45 AM 34.3°F1.3°C 26.6°F-3.0°C 73% 2.0 mph SE3.2 kmh SE 6.0 mph9.7 kmh 29.83 in1010.2 mb 0.00 in0.0 mm 0.00 in0.0 mm 0.00 in0.0 mm
05:50 AM 34.3°F1.3°C 26.6°F-3.0°C 73% 2.0 mph SSW3.2 kmh SSW 6.0 mph9.7 kmh 29.83 in1010.2 mb 0.00 in0.0 mm 0.00 in0.0 mm 0.00 in0.0 mm
05:55 AM 34.3°F1.3°C 26.6°F-3.0°C 73% 2.0 mph SE3.2 kmh SE 4.9 mph7.9 kmh 29.82 in1009.8 mb 0.00 in0.0 mm 0.00 in0.0 mm 0.00 in0.0 mm
06:00 AM 34.5°F1.4°C 27.1°F-2.7°C 74% 2.0 mph ESE3.2 kmh ESE 6.0 mph9.7 kmh 29.82 in1009.8 mb 0.00 in0.0 mm 0.00 in0.0 mm 0.00 in0.0 mm
06:05 AM 34.7°F1.5°C 27.3°F-2.6°C 74% 2.0 mph S3.2 kmh S 6.0 mph9.7 kmh 29.82 in1009.8 mb 0.00 in0.0 mm 0.00 in0.0 mm 0.00 in0.0 mm
06:10 AM 34.9°F1.6°C 27.5°F-2.5°C 74% 2.0 mph ESE3.2 kmh ESE 4.9 mph7.9 kmh 29.82 in1009.8 mb 0.00 in0.0 mm 0.00 in0.0 mm 0.00 in0.0 mm
06:15 AM 35.1°F1.7°C 27.7°F-2.4°C 74% 0.9 mph S1.4 kmh S 6.0 mph9.7 kmh 29.82 in1009.8 mb 0.00 in0.0 mm 0.00 in0.0 mm 0.00 in0.0 mm
06:20 AM 35.2°F1.8°C 27.5°F-2.5°C 73% 2.0 mph S3.2 kmh S 2.9 mph4.7 kmh 29.82 in1009.8 mb 0.00 in0.0 mm 0.00 in0.0 mm 0.00 in0.0 mm
06:25 AM 35.4°F1.9°C 27.7°F-2.4°C 73% 2.0 mph SE3.2 kmh SE 6.0 mph9.7 kmh 29.82 in1009.8 mb 0.00 in0.0 mm 0.00 in0.0 mm 0.00 in0.0 mm
06:30 AM 35.6°F2.0°C 27.9°F-2.3°C 73% 2.0 mph S3.2 kmh S 6.0 mph9.7 kmh 29.82 in1009.8 mb 0.00 in0.0 mm 0.00 in0.0 mm 0.00 in0.0 mm
06:35 AM 35.8°F2.1°C 28.0°F-2.2°C 73% 2.0 mph S3.2 kmh S 6.9 mph11.1 kmh 29.82 in1009.8 mb 0.00 in0.0 mm 0.00 in0.0 mm 0.00 in0.0 mm
06:40 AM 35.8°F2.1°C 28.0°F-2.2°C 73% 2.0 mph S3.2 kmh S 4.0 mph6.4 kmh 29.82 in1009.8 mb 0.00 in0.0 mm 0.00 in0.0 mm 0.00 in0.0 mm
06:45 AM 35.8°F2.1°C 28.0°F-2.2°C 73% 2.0 mph S3.2 kmh S 4.9 mph7.9 kmh 29.82 in1009.8 mb 0.00 in0.0 mm 0.00 in0.0 mm 0.00 in0.0 mm
06:50 AM 35.8°F2.1°C 28.0°F-2.2°C 73% 2.0 mph S3.2 kmh S 4.9 mph7.9 kmh 29.81 in1009.5 mb 0.00 in0.0 mm 0.00 in0.0 mm 0.00 in0.0 mm
06:56 AM 35.8°F2.1°C 28.4°F-2.0°C 74% 2.0 mph S3.2 kmh S 4.0 mph6.4 kmh 29.81 in1009.5 mb 0.00 in0.0 mm 0.00 in0.0 mm 0.00 in0.0 mm
07:01 AM 35.8°F2.1°C 28.4°F-2.0°C 74% 0.9 mph S1.4 kmh S 4.0 mph6.4 kmh 29.82 in1009.8 mb 0.00 in0.0 mm 0.00 in0.0 mm 0.00 in0.0 mm
07:06 AM 35.8°F2.1°C 28.4°F-2.0°C 74% 0.9 mph SE1.4 kmh SE 2.9 mph4.7 kmh 29.82 in1009.8 mb 0.00 in0.0 mm 0.00 in0.0 mm 0.00 in0.0 mm
07:11 AM 35.8°F2.1°C 28.4°F-2.0°C 74% 0.9 mph SSE1.4 kmh SSE 4.9 mph7.9 kmh 29.82 in1009.8 mb 0.00 in0.0 mm 0.00 in0.0 mm 0.00 in0.0 mm
07:16 AM 35.8°F2.1°C 28.4°F-2.0°C 74% 2.0 mph SSE3.2 kmh SSE 4.9 mph7.9 kmh 29.82 in1009.8 mb 0.00 in0.0 mm 0.00 in0.0 mm 0.00 in0.0 mm
07:21 AM 35.8°F2.1°C 28.4°F-2.0°C 74% 0.9 mph SSW1.4 kmh SSW 2.9 mph4.7 kmh 29.83 in1010.2 mb 0.00 in0.0 mm 0.00 in0.0 mm 0.00 in0.0 mm
07:26 AM 35.8°F2.1°C 28.6°F-1.9°C 75% 0.9 mph SW1.4 kmh SW 6.0 mph9.7 kmh 29.82 in1009.8 mb 0.00 in0.0 mm 0.00 in0.0 mm 0.00 in0.0 mm
07:31 AM 36.0°F2.2°C 28.8°F-1.8°C 75% 2.0 mph S3.2 kmh S 6.0 mph9.7 kmh 29.83 in1010.2 mb 0.00 in0.0 mm 0.00 in0.0 mm 0.00 in0.0 mm
07:36 AM 36.0°F2.2°C 28.8°F-1.8°C 75% 0.9 mph SSE1.4 kmh SSE 2.0 mph3.2 kmh 29.83 in1010.2 mb 0.00 in0.0 mm 0.00 in0.0 mm 0.00 in0.0 mm
07:41 AM 36.0°F2.2°C 28.8°F-1.8°C 75% 0.9 mph S1.4 kmh S 4.9 mph7.9 kmh 29.83 in1010.2 mb 0.00 in0.0 mm 0.00 in0.0 mm 0.00 in0.0 mm
07:46 AM 36.0°F2.2°C 28.8°F-1.8°C 75% 0.9 mph SSW1.4 kmh SSW 2.0 mph3.2 kmh 29.83 in1010.2 mb 0.00 in0.0 mm 0.00 in0.0 mm 0.00 in0.0 mm
07:51 AM 36.1°F2.3°C 28.9°F-1.7°C 75% 0.9 mph SSE1.4 kmh SSE 2.0 mph3.2 kmh 29.83 in1010.2 mb 0.00 in0.0 mm 0.00 in0.0 mm 0.00 in0.0 mm
07:56 AM 36.1°F2.3°C 28.9°F-1.7°C 75% 0.9 mph S1.4 kmh S 3.0 mph4.8 kmh 29.83 in1010.2 mb 0.00 in0.0 mm 0.00 in0.0 mm 0.00 in0.0 mm
08:01 AM 36.1°F2.3°C 29.3°F-1.5°C 76% 0.9 mph SSW1.4 kmh SSW 2.9 mph4.7 kmh 29.83 in1010.2 mb 0.00 in0.0 mm 0.00 in0.0 mm 0.00 in0.0 mm
08:06 AM 36.1°F2.3°C 29.3°F-1.5°C 76% 0.9 mph S1.4 kmh S 5.0 mph8.0 kmh 29.83 in1010.2 mb 0.00 in0.0 mm 0.00 in0.0 mm 0.00 in0.0 mm
08:11 AM 36.1°F2.3°C 29.3°F-1.5°C 76% 0.9 mph S1.4 kmh S 2.9 mph4.7 kmh 29.83 in1010.2 mb 0.00 in0.0 mm 0.00 in0.0 mm 0.00 in0.0 mm
08:16 AM 36.1°F2.3°C 29.7°F-1.3°C 77% 0.9 mph S1.4 kmh S 4.0 mph6.4 kmh 29.83 in1010.2 mb 0.00 in0.0 mm 0.00 in0.0 mm 0.00 in0.0 mm
08:21 AM 36.1°F2.3°C 29.7°F-1.3°C 77% 0.9 mph S1.4 kmh S 2.0 mph3.2 kmh 29.83 in1010.2 mb 0.00 in0.0 mm 0.00 in0.0 mm 0.00 in0.0 mm
08:26 AM 36.1°F2.3°C 29.7°F-1.3°C 77% Calm Calm 2.9 mph4.7 kmh 29.84 in1010.5 mb 0.00 in0.0 mm 0.00 in0.0 mm 0.00 in0.0 mm
08:31 AM 36.1°F2.3°C 29.7°F-1.3°C 77% Calm Calm 2.0 mph3.2 kmh 29.83 in1010.2 mb 0.00 in0.0 mm 0.00 in0.0 mm 0.00 in0.0 mm
08:36 AM 36.1°F2.3°C 30.0°F-1.1°C 78% Calm Calm 2.0 mph3.2 kmh 29.83 in1010.2 mb 0.00 in0.0 mm 0.00 in0.0 mm 0.00 in0.0 mm
08:41 AM 36.1°F2.3°C 30.0°F-1.1°C 78% Calm Calm 2.0 mph3.2 kmh 29.83 in1010.2 mb 0.00 in0.0 mm 0.00 in0.0 mm 0.00 in0.0 mm
08:46 AM 36.1°F2.3°C 30.2°F-1.0°C 79% 0.9 mph S1.4 kmh S 3.0 mph4.8 kmh 29.83 in1010.2 mb 0.00 in0.0 mm 0.00 in0.0 mm 0.00 in0.0 mm
08:51 AM 36.3°F2.4°C 30.4°F-0.9°C 79% Calm Calm 2.0 mph3.2 kmh 29.83 in1010.2 mb 0.00 in0.0 mm 0.00 in0.0 mm 0.00 in0.0 mm
08:56 AM 36.3°F2.4°C 30.4°F-0.9°C 79% Calm Calm 3.0 mph4.8 kmh 29.83 in1010.2 mb 0.00 in0.0 mm 0.00 in0.0 mm 0.00 in0.0 mm
09:01 AM 36.5°F2.5°C 30.6°F-0.8°C 79% Calm Calm 2.9 mph4.7 kmh 29.84 in1010.5 mb 0.00 in0.0 mm 0.00 in0.0 mm 0.00 in0.0 mm
09:06 AM 36.7°F2.6°C 30.7°F-0.7°C 79% 0.9 mph SSW1.4 kmh SSW 5.0 mph8.0 kmh 29.84 in1010.5 mb 0.00 in0.0 mm 0.00 in0.0 mm 0.00 in0.0 mm
09:11 AM 36.9°F2.7°C 30.9°F-0.6°C 79% 0.9 mph S1.4 kmh S 5.0 mph8.0 kmh 29.84 in1010.5 mb 0.00 in0.0 mm 0.00 in0.0 mm 0.00 in0.0 mm
09:16 AM 36.9°F2.7°C 30.9°F-0.6°C 79% 0.9 mph SW1.4 kmh SW 2.0 mph3.2 kmh 29.84 in1010.5 mb 0.00 in0.0 mm 0.00 in0.0 mm 0.00 in0.0 mm
09:21 AM 36.9°F2.7°C 30.9°F-0.6°C 79% 0.9 mph SSW1.4 kmh SSW 2.9 mph4.7 kmh 29.84 in1010.5 mb 0.00 in0.0 mm 0.00 in0.0 mm 0.00 in0.0 mm
09:26 AM 37.0°F2.8°C 31.1°F-0.5°C 79% 0.9 mph SSE1.4 kmh SSE 5.0 mph8.0 kmh 29.84 in1010.5 mb 0.00 in0.0 mm 0.00 in0.0 mm 0.00 in0.0 mm
09:31 AM 37.0°F2.8°C 31.1°F-0.5°C 79% 0.9 mph SSE1.4 kmh SSE 2.0 mph3.2 kmh 29.84 in1010.5 mb 0.00 in0.0 mm 0.00 in0.0 mm 0.00 in0.0 mm
09:36 AM 37.2°F2.9°C 31.3°F-0.4°C 79% 0.9 mph S1.4 kmh S 2.9 mph4.7 kmh 29.84 in1010.5 mb 0.00 in0.0 mm 0.00 in0.0 mm 0.00 in0.0 mm
09:41 AM 37.2°F2.9°C 31.3°F-0.4°C 79% 0.9 mph WSW1.4 kmh WSW 2.9 mph4.7 kmh 29.84 in1010.5 mb 0.00 in0.0 mm 0.00 in0.0 mm 0.00 in0.0 mm
09:46 AM 37.4°F3.0°C 31.5°F-0.3°C 79% Calm Calm 4.0 mph6.4 kmh 29.84 in1010.5 mb 0.00 in0.0 mm 0.00 in0.0 mm 0.00 in0.0 mm
09:51 AM 37.4°F3.0°C 31.5°F-0.3°C 79% Calm Calm 0.9 mph1.4 kmh 29.84 in1010.5 mb 0.00 in0.0 mm 0.00 in0.0 mm 0.00 in0.0 mm
09:56 AM 37.4°F3.0°C 31.5°F-0.3°C 79% Calm Calm 2.0 mph3.2 kmh 29.84 in1010.5 mb 0.00 in0.0 mm 0.00 in0.0 mm 0.00 in0.0 mm
10:01 AM 37.4°F3.0°C 31.5°F-0.3°C 79% 0.9 mph SSW1.4 kmh SSW 4.0 mph6.4 kmh 29.84 in1010.5 mb 0.01 in0.3 mm 0.01 in0.3 mm 0.01 in0.3 mm
10:06 AM 37.6°F3.1°C 31.6°F-0.2°C 79% 0.9 mph SSW1.4 kmh SSW 4.0 mph6.4 kmh 29.84 in1010.5 mb 0.01 in0.3 mm 0.00 in0.0 mm 0.01 in0.3 mm
10:11 AM 37.6°F3.1°C 31.6°F-0.2°C 79% 0.9 mph SSW1.4 kmh SSW 0.9 mph1.4 kmh 29.84 in1010.5 mb 0.01 in0.3 mm 0.00 in0.0 mm 0.01 in0.3 mm
10:16 AM 37.6°F3.1°C 32.0°F0.0°C 80% Calm Calm -- 29.84 in1010.5 mb 0.01 in0.3 mm 0.00 in0.0 mm 0.01 in0.3 mm
10:21 AM 37.6°F3.1°C 32.0°F0.0°C 80% Calm Calm 0.9 mph1.4 kmh 29.84 in1010.5 mb 0.01 in0.3 mm 0.00 in0.0 mm 0.01 in0.3 mm
10:26 AM 37.8°F3.2°C 32.2°F0.1°C 80% Calm Calm 0.9 mph1.4 kmh 29.84 in1010.5 mb 0.01 in0.3 mm 0.00 in0.0 mm 0.01 in0.3 mm
10:31 AM 37.8°F3.2°C 32.2°F0.1°C 80% Calm Calm 0.9 mph1.4 kmh 29.84 in1010.5 mb 0.01 in0.3 mm 0.00 in0.0 mm 0.01 in0.3 mm
10:36 AM 37.9°F3.3°C 32.4°F0.2°C 80% Calm Calm 0.9 mph1.4 kmh 29.84 in1010.5 mb 0.01 in0.3 mm 0.00 in0.0 mm 0.01 in0.3 mm
10:41 AM 38.1°F3.4°C 32.5°F0.3°C 80% Calm Calm -- 29.85 in1010.8 mb 0.01 in0.3 mm 0.00 in0.0 mm 0.01 in0.3 mm
10:46 AM 38.1°F3.4°C 32.5°F0.3°C 80% Calm Calm -- 29.85 in1010.8 mb 0.01 in0.3 mm 0.00 in0.0 mm 0.01 in0.3 mm
10:51 AM 38.5°F3.6°C 32.9°F0.5°C 80% Calm Calm 0.9 mph1.4 kmh 29.85 in1010.8 mb 0.01 in0.3 mm 0.00 in0.0 mm 0.01 in0.3 mm
10:56 AM 38.7°F3.7°C 32.7°F0.4°C 79% Calm Calm -- 29.85 in1010.8 mb 0.01 in0.3 mm 0.00 in0.0 mm 0.01 in0.3 mm
11:01 AM 39.0°F3.9°C 33.1°F0.6°C 79% Calm Calm 2.0 mph3.2 kmh 29.84 in1010.5 mb 0.01 in0.3 mm 0.00 in0.0 mm 0.02 in0.5 mm
11:06 AM 39.4°F4.1°C 33.4°F0.8°C 79% Calm Calm 2.0 mph3.2 kmh 29.84 in1010.5 mb 0.01 in0.3 mm 0.00 in0.0 mm 0.02 in0.5 mm
11:11 AM 39.7°F4.3°C 33.1°F0.6°C 77% Calm Calm 2.0 mph3.2 kmh 29.84 in1010.5 mb 0.01 in0.3 mm 0.00 in0.0 mm 0.02 in0.5 mm
11:16 AM 40.5°F4.7°C 33.8°F1.0°C 77% 0.9 mph SSW1.4 kmh SSW 0.9 mph1.4 kmh 29.84 in1010.5 mb 0.01 in0.3 mm 0.00 in0.0 mm 0.02 in0.5 mm
11:21 AM 41.2°F5.1°C 33.8°F1.0°C 75% Calm Calm 2.0 mph3.2 kmh 29.84 in1010.5 mb 0.01 in0.3 mm 0.00 in0.0 mm 0.02 in0.5 mm
11:26 AM 41.2°F5.1°C 33.4°F0.8°C 74% 0.9 mph WSW1.4 kmh WSW 4.0 mph6.4 kmh 29.85 in1010.8 mb 0.01 in0.3 mm 0.00 in0.0 mm 0.02 in0.5 mm
11:31 AM 41.2°F5.1°C 33.8°F1.0°C 75% 0.9 mph SW1.4 kmh SW 4.0 mph6.4 kmh 29.85 in1010.8 mb 0.01 in0.3 mm 0.00 in0.0 mm 0.02 in0.5 mm
11:36 AM 41.5°F5.3°C 33.8°F1.0°C 74% 0.9 mph WSW1.4 kmh WSW 4.0 mph6.4 kmh 29.85 in1010.8 mb 0.01 in0.3 mm 0.00 in0.0 mm 0.02 in0.5 mm
11:41 AM 42.1°F5.6°C 34.0°F1.1°C 73% 0.9 mph WSW1.4 kmh WSW 4.9 mph7.9 kmh 29.85 in1010.8 mb 0.01 in0.3 mm 0.00 in0.0 mm 0.02 in0.5 mm
11:46 AM 42.6°F5.9°C 33.8°F1.0°C 71% 0.9 mph SSW1.4 kmh SSW 4.9 mph7.9 kmh 29.84 in1010.5 mb 0.01 in0.3 mm 0.00 in0.0 mm 0.02 in0.5 mm
11:51 AM 42.6°F5.9°C 33.8°F1.0°C 71% 0.9 mph SSW1.4 kmh SSW 4.9 mph7.9 kmh 29.84 in1010.5 mb 0.01 in0.3 mm 0.00 in0.0 mm 0.02 in0.5 mm
11:56 AM 43.0°F6.1°C 33.8°F1.0°C 70% 0.9 mph SSW1.4 kmh SSW 7.0 mph11.3 kmh 29.84 in1010.5 mb 0.01 in0.3 mm 0.00 in0.0 mm 0.02 in0.5 mm
12:01 PM 43.2°F6.2°C 34.0°F1.1°C 70% 2.0 mph SSW3.2 kmh SSW 6.0 mph9.7 kmh 29.84 in1010.5 mb 0.00 in0.0 mm 0.00 in0.0 mm 0.02 in0.5 mm
12:06 PM 43.2°F6.2°C 33.6°F0.9°C 69% 0.9 mph W1.4 kmh W 2.9 mph4.7 kmh 29.85 in1010.8 mb 0.00 in0.0 mm 0.00 in0.0 mm 0.02 in0.5 mm
12:12 PM 43.0°F6.1°C 33.4°F0.8°C 69% 0.9 mph WSW1.4 kmh WSW 6.0 mph9.7 kmh 29.84 in1010.5 mb 0.00 in0.0 mm 0.00 in0.0 mm 0.02 in0.5 mm
12:17 PM 42.6°F5.9°C 33.1°F0.6°C 69% 2.0 mph SW3.2 kmh SW 11.0 mph17.7 kmh 29.84 in1010.5 mb 0.00 in0.0 mm 0.00 in0.0 mm 0.02 in0.5 mm
12:22 PM 42.4°F5.8°C 33.1°F0.6°C 69% 2.0 mph ESE3.2 kmh ESE 8.1 mph13.0 kmh 29.85 in1010.8 mb 0.00 in0.0 mm 0.00 in0.0 mm 0.02 in0.5 mm
12:27 PM 42.6°F5.9°C 33.1°F0.6°C 69% 2.0 mph SW3.2 kmh SW 6.0 mph9.7 kmh 29.85 in1010.8 mb 0.00 in0.0 mm 0.00 in0.0 mm 0.02 in0.5 mm
12:32 PM 42.4°F5.8°C 33.1°F0.6°C 69% 0.9 mph WSW1.4 kmh WSW 2.9 mph4.7 kmh 29.85 in1010.8 mb 0.00 in0.0 mm 0.00 in0.0 mm 0.02 in0.5 mm
12:37 PM 42.3°F5.7°C 32.9°F0.5°C 69% 0.9 mph SW1.4 kmh SW 8.1 mph13.0 kmh 29.86 in1011.2 mb 0.00 in0.0 mm 0.00 in0.0 mm 0.02 in0.5 mm
12:42 PM 41.7°F5.4°C 32.7°F0.4°C 70% 2.0 mph W3.2 kmh W 6.0 mph9.7 kmh 29.86 in1011.2 mb 0.00 in0.0 mm 0.00 in0.0 mm 0.02 in0.5 mm
12:47 PM 41.4°F5.2°C 33.1°F0.6°C 72% 2.0 mph NW3.2 kmh NW 8.9 mph14.3 kmh 29.86 in1011.2 mb 0.00 in0.0 mm 0.00 in0.0 mm 0.02 in0.5 mm
12:52 PM 40.8°F4.9°C 32.2°F0.1°C 71% 2.0 mph WNW3.2 kmh WNW 8.1 mph13.0 kmh 29.87 in1011.5 mb 0.00 in0.0 mm 0.00 in0.0 mm 0.02 in0.5 mm
12:57 PM 40.3°F4.6°C 32.4°F0.2°C 73% 2.0 mph NW3.2 kmh NW 10.1 mph16.3 kmh 29.86 in1011.2 mb 0.01 in0.3 mm 0.12 in3.0 mm 0.03 in0.8 mm
01:02 PM 40.1°F4.5°C 32.2°F0.1°C 73% 2.9 mph W4.7 kmh W 6.9 mph11.1 kmh 29.87 in1011.5 mb 0.01 in0.3 mm 0.00 in0.0 mm 0.03 in0.8 mm
01:07 PM 40.3°F4.6°C 32.4°F0.2°C 73% 2.9 mph W4.7 kmh W 6.0 mph9.7 kmh 29.86 in1011.2 mb 0.01 in0.3 mm 0.00 in0.0 mm 0.03 in0.8 mm
01:12 PM 40.5°F4.7°C 32.5°F0.3°C 73% 2.0 mph NW3.2 kmh NW 6.9 mph11.1 kmh 29.86 in1011.2 mb 0.01 in0.3 mm 0.00 in0.0 mm 0.03 in0.8 mm
01:17 PM 40.3°F4.6°C 32.0°F0.0°C 72% 2.9 mph W4.7 kmh W 12.1 mph19.5 kmh 29.86 in1011.2 mb 0.01 in0.3 mm 0.00 in0.0 mm 0.03 in0.8 mm
01:22 PM 39.7°F4.3°C 31.5°F-0.3°C 72% 4.0 mph NW6.4 kmh NW 11.0 mph17.7 kmh 29.86 in1011.2 mb 0.01 in0.3 mm 0.00 in0.0 mm 0.03 in0.8 mm
01:27 PM 39.6°F4.2°C 31.6°F-0.2°C 73% 2.9 mph WNW4.7 kmh WNW 10.1 mph16.3 kmh 29.86 in1011.2 mb 0.01 in0.3 mm 0.00 in0.0 mm 0.03 in0.8 mm
01:32 PM 39.2°F4.0°C 31.3°F-0.4°C 73% 2.9 mph NNW4.7 kmh NNW 15.0 mph24.1 kmh 29.87 in1011.5 mb 0.01 in0.3 mm 0.00 in0.0 mm 0.03 in0.8 mm
01:37 PM 38.8°F3.8°C 31.3°F-0.4°C 74% 4.0 mph NW6.4 kmh NW 10.1 mph16.3 kmh 29.87 in1011.5 mb 0.01 in0.3 mm 0.00 in0.0 mm 0.03 in0.8 mm
01:42 PM 38.5°F3.6°C 31.3°F-0.4°C 75% 4.0 mph W6.4 kmh W 6.9 mph11.1 kmh 29.87 in1011.5 mb 0.01 in0.3 mm 0.00 in0.0 mm 0.03 in0.8 mm
01:47 PM 38.3°F3.5°C 31.5°F-0.3°C 76% 2.0 mph N3.2 kmh N 6.9 mph11.1 kmh 29.87 in1011.5 mb 0.01 in0.3 mm 0.00 in0.0 mm 0.03 in0.8 mm
01:52 PM 37.9°F3.3°C 31.1°F-0.5°C 76% 2.0 mph NNW3.2 kmh NNW 10.1 mph16.3 kmh 29.86 in1011.2 mb 0.01 in0.3 mm 0.00 in0.0 mm 0.03 in0.8 mm
01:57 PM 37.6°F3.1°C 31.1°F-0.5°C 77% 2.0 mph N3.2 kmh N 6.0 mph9.7 kmh 29.87 in1011.5 mb 0.00 in0.0 mm 0.00 in0.0 mm 0.03 in0.8 mm
02:02 PM 36.9°F2.7°C 30.6°F-0.8°C 78% 2.0 mph NW3.2 kmh NW 8.9 mph14.3 kmh 29.87 in1011.5 mb 0.00 in0.0 mm 0.00 in0.0 mm 0.03 in0.8 mm
02:07 PM 36.1°F2.3°C 30.2°F-1.0°C 79% 2.9 mph NW4.7 kmh NW 12.1 mph19.5 kmh 29.87 in1011.5 mb 0.00 in0.0 mm 0.00 in0.0 mm 0.03 in0.8 mm
02:12 PM 35.8°F2.1°C 30.2°F-1.0°C 80% 2.9 mph W4.7 kmh W 8.9 mph14.3 kmh 29.89 in1012.2 mb 0.00 in0.0 mm 0.00 in0.0 mm 0.03 in0.8 mm
02:17 PM 35.6°F2.0°C 30.0°F-1.1°C 80% 2.9 mph SW4.7 kmh SW 10.1 mph16.3 kmh 29.89 in1012.2 mb 0.00 in0.0 mm 0.00 in0.0 mm 0.03 in0.8 mm
02:22 PM 35.2°F1.8°C 30.0°F-1.1°C 81% 2.9 mph NW4.7 kmh NW 8.1 mph13.0 kmh 29.89 in1012.2 mb 0.00 in0.0 mm 0.00 in0.0 mm 0.03 in0.8 mm
02:27 PM 34.9°F1.6°C 29.7°F-1.3°C 81% 4.0 mph NW6.4 kmh NW 10.1 mph16.3 kmh 29.90 in1012.5 mb 0.00 in0.0 mm 0.00 in0.0 mm 0.03 in0.8 mm
02:32 PM 34.2°F1.2°C 28.9°F-1.7°C 81% 4.0 mph NW6.4 kmh NW 10.1 mph16.3 kmh 29.90 in1012.5 mb 0.00 in0.0 mm 0.00 in0.0 mm 0.03 in0.8 mm
02:37 PM 33.6°F0.9°C 28.8°F-1.8°C 82% 2.9 mph N4.7 kmh N 6.9 mph11.1 kmh 29.91 in1012.9 mb 0.00 in0.0 mm 0.00 in0.0 mm 0.03 in0.8 mm
02:42 PM 33.3°F0.7°C 28.6°F-1.9°C 83% 2.9 mph NNW4.7 kmh NNW 11.0 mph17.7 kmh 29.92 in1013.2 mb 0.00 in0.0 mm 0.00 in0.0 mm 0.03 in0.8 mm
02:47 PM 33.1°F0.6°C 28.4°F-2.0°C 83% 2.9 mph NW4.7 kmh NW 6.9 mph11.1 kmh 29.93 in1013.5 mb 0.00 in0.0 mm 0.00 in0.0 mm 0.03 in0.8 mm
02:52 PM 32.9°F0.5°C 28.2°F-2.1°C 83% 2.9 mph NW4.7 kmh NW 9.0 mph14.5 kmh 29.93 in1013.5 mb 0.00 in0.0 mm 0.00 in0.0 mm 0.03 in0.8 mm
02:57 PM 32.5°F0.3°C 28.0°F-2.2°C 83% 2.9 mph WNW4.7 kmh WNW 11.0 mph17.7 kmh 29.94 in1013.9 mb 0.00 in0.0 mm 0.00 in0.0 mm 0.03 in0.8 mm
03:02 PM 32.2°F0.1°C 27.7°F-2.4°C 83% 4.0 mph NW6.4 kmh NW 14.0 mph22.5 kmh 29.94 in1013.9 mb 0.00 in0.0 mm 0.00 in0.0 mm 0.03 in0.8 mm
03:07 PM 31.8°F-0.1°C 27.3°F-2.6°C 83% 2.9 mph NNE4.7 kmh NNE 15.0 mph24.1 kmh 29.94 in1013.9 mb 0.00 in0.0 mm 0.00 in0.0 mm 0.03 in0.8 mm
03:12 PM 31.5°F-0.3°C 27.1°F-2.7°C 84% 2.9 mph N4.7 kmh N 8.1 mph13.0 kmh 29.94 in1013.9 mb 0.00 in0.0 mm 0.00 in0.0 mm 0.03 in0.8 mm
03:17 PM 31.5°F-0.3°C 27.1°F-2.7°C 84% 2.9 mph NNW4.7 kmh NNW 8.1 mph13.0 kmh 29.95 in1014.2 mb 0.00 in0.0 mm 0.00 in0.0 mm 0.03 in0.8 mm
03:22 PM 30.7°F-0.7°C 26.2°F-3.2°C 83% 2.9 mph WSW4.7 kmh WSW 8.1 mph13.0 kmh 29.95 in1014.2 mb 0.00 in0.0 mm 0.00 in0.0 mm 0.03 in0.8 mm
03:27 PM 30.0°F-1.1°C 25.7°F-3.5°C 84% 2.9 mph NW4.7 kmh NW 10.1 mph16.3 kmh 29.96 in1014.6 mb 0.00 in0.0 mm 0.00 in0.0 mm 0.03 in0.8 mm
03:32 PM 29.7°F-1.3°C 25.3°F-3.7°C 84% 2.9 mph NW4.7 kmh NW 6.9 mph11.1 kmh 29.96 in1014.6 mb 0.00 in0.0 mm 0.00 in0.0 mm 0.03 in0.8 mm
03:37 PM 29.5°F-1.4°C 25.2°F-3.8°C 84% 2.9 mph NNW4.7 kmh NNW 12.1 mph19.5 kmh 29.96 in1014.6 mb 0.00 in0.0 mm 0.00 in0.0 mm 0.03 in0.8 mm
03:42 PM 29.5°F-1.4°C 25.5°F-3.6°C 85% 2.0 mph NW3.2 kmh NW 6.0 mph9.7 kmh 29.97 in1014.9 mb 0.00 in0.0 mm 0.00 in0.0 mm 0.03 in0.8 mm
03:47 PM 29.3°F-1.5°C 25.3°F-3.7°C 85% 2.0 mph NW3.2 kmh NW 6.9 mph11.1 kmh 29.97 in1014.9 mb 0.00 in0.0 mm 0.00 in0.0 mm 0.03 in0.8 mm
03:52 PM 29.3°F-1.5°C 25.2°F-3.8°C 84% 2.9 mph NNW4.7 kmh NNW 10.1 mph16.3 kmh 29.97 in1014.9 mb 0.00 in0.0 mm 0.00 in0.0 mm 0.03 in0.8 mm
03:57 PM 29.3°F-1.5°C 25.2°F-3.8°C 84% 2.9 mph NE4.7 kmh NE 8.1 mph13.0 kmh 29.98 in1015.2 mb 0.00 in0.0 mm 0.00 in0.0 mm 0.03 in0.8 mm
04:02 PM 29.5°F-1.4°C 25.2°F-3.8°C 84% 2.9 mph NNE4.7 kmh NNE 6.9 mph11.1 kmh 29.98 in1015.2 mb 0.00 in0.0 mm 0.00 in0.0 mm 0.03 in0.8 mm
04:07 PM 29.5°F-1.4°C 24.6°F-4.1°C 82% 2.9 mph NNW4.7 kmh NNW 9.0 mph14.5 kmh 29.99 in1015.6 mb 0.00 in0.0 mm 0.00 in0.0 mm 0.03 in0.8 mm
04:12 PM 28.9°F-1.7°C 24.1°F-4.4°C 82% 2.9 mph NW4.7 kmh NW 8.9 mph14.3 kmh 29.99 in1015.6 mb 0.00 in0.0 mm 0.00 in0.0 mm 0.03 in0.8 mm
04:17 PM 28.8°F-1.8°C 23.9°F-4.5°C 82% 4.0 mph N6.4 kmh N 11.0 mph17.7 kmh 29.99 in1015.6 mb 0.00 in0.0 mm 0.00 in0.0 mm 0.03 in0.8 mm
04:22 PM 28.6°F-1.9°C 23.7°F-4.6°C 82% 4.0 mph NW6.4 kmh NW 12.1 mph19.5 kmh 29.99 in1015.6 mb 0.00 in0.0 mm 0.00 in0.0 mm 0.03 in0.8 mm
04:27 PM 28.4°F-2.0°C 23.4°F-4.8°C 81% 4.9 mph NW7.9 kmh NW 11.0 mph17.7 kmh 30.00 in1015.9 mb 0.00 in0.0 mm 0.00 in0.0 mm 0.03 in0.8 mm
04:32 PM 28.2°F-2.1°C 23.2°F-4.9°C 81% 4.9 mph NE7.9 kmh NE 8.9 mph14.3 kmh 30.00 in1015.9 mb 0.00 in0.0 mm 0.00 in0.0 mm 0.03 in0.8 mm
04:37 PM 28.0°F-2.2°C 23.0°F-5.0°C 81% 4.0 mph N6.4 kmh N 8.9 mph14.3 kmh 30.00 in1015.9 mb 0.00 in0.0 mm 0.00 in0.0 mm 0.03 in0.8 mm
04:42 PM 27.7°F-2.4°C 22.6°F-5.2°C 81% 4.0 mph N6.4 kmh N 15.0 mph24.1 kmh 30.00 in1015.9 mb 0.00 in0.0 mm 0.00 in0.0 mm 0.03 in0.8 mm
04:47 PM 27.3°F-2.6°C 22.6°F-5.2°C 82% 4.0 mph N6.4 kmh N 13.0 mph20.9 kmh 30.01 in1016.3 mb 0.00 in0.0 mm 0.00 in0.0 mm 0.03 in0.8 mm
04:52 PM 27.3°F-2.6°C 22.6°F-5.2°C 82% 4.0 mph NW6.4 kmh NW 11.0 mph17.7 kmh 30.01 in1016.3 mb 0.00 in0.0 mm 0.00 in0.0 mm 0.03 in0.8 mm
04:57 PM 27.1°F-2.7°C 22.5°F-5.3°C 82% 4.0 mph N6.4 kmh N 10.1 mph16.3 kmh 30.01 in1016.3 mb 0.00 in0.0 mm 0.00 in0.0 mm 0.03 in0.8 mm
05:02 PM 27.1°F-2.7°C 22.5°F-5.3°C 82% 4.0 mph NW6.4 kmh NW 8.9 mph14.3 kmh 30.01 in1016.3 mb 0.00 in0.0 mm 0.00 in0.0 mm 0.03 in0.8 mm
05:07 PM 26.8°F-2.9°C 21.7°F-5.7°C 81% 4.0 mph NW6.4 kmh NW 13.0 mph20.9 kmh 30.02 in1016.6 mb 0.00 in0.0 mm 0.00 in0.0 mm 0.03 in0.8 mm
05:12 PM 26.4°F-3.1°C 21.7°F-5.7°C 82% 4.0 mph NE6.4 kmh NE 8.9 mph14.3 kmh 30.02 in1016.6 mb 0.00 in0.0 mm 0.00 in0.0 mm 0.03 in0.8 mm
05:17 PM 26.4°F-3.1°C 21.7°F-5.7°C 82% 2.9 mph N4.7 kmh N 8.1 mph13.0 kmh 30.03 in1016.9 mb 0.00 in0.0 mm 0.00 in0.0 mm 0.03 in0.8 mm
05:22 PM 26.2°F-3.2°C 21.2°F-6.0°C 81% 4.0 mph NNW6.4 kmh NNW 11.0 mph17.7 kmh 30.03 in1016.9 mb 0.00 in0.0 mm 0.00 in0.0 mm 0.03 in0.8 mm
05:27 PM 26.1°F-3.3°C 21.4°F-5.9°C 82% 4.0 mph NW6.4 kmh NW 10.1 mph16.3 kmh 30.03 in1016.9 mb 0.00 in0.0 mm 0.00 in0.0 mm 0.03 in0.8 mm
05:32 PM 26.1°F-3.3°C 21.4°F-5.9°C 82% 2.9 mph WNW4.7 kmh WNW 8.9 mph14.3 kmh 30.03 in1016.9 mb 0.00 in0.0 mm 0.00 in0.0 mm 0.03 in0.8 mm
05:37 PM 26.1°F-3.3°C 21.4°F-5.9°C 82% 2.9 mph NW4.7 kmh NW 11.0 mph17.7 kmh 30.04 in1017.3 mb 0.00 in0.0 mm 0.00 in0.0 mm 0.03 in0.8 mm
05:42 PM 25.9°F-3.4°C 21.4°F-5.9°C 83% 4.0 mph NW6.4 kmh NW 8.1 mph13.0 kmh 30.05 in1017.6 mb 0.00 in0.0 mm 0.00 in0.0 mm 0.03 in0.8 mm
05:47 PM 25.9°F-3.4°C 21.4°F-5.9°C 83% 2.9 mph NNE4.7 kmh NNE 8.9 mph14.3 kmh 30.05 in1017.6 mb 0.00 in0.0 mm 0.00 in0.0 mm 0.03 in0.8 mm
05:52 PM 25.9°F-3.4°C 21.4°F-5.9°C 83% 2.9 mph WNW4.7 kmh WNW 6.9 mph11.1 kmh 30.05 in1017.6 mb 0.00 in0.0 mm 0.00 in0.0 mm 0.03 in0.8 mm
05:57 PM 25.7°F-3.5°C 21.2°F-6.0°C 83% 2.9 mph N4.7 kmh N 8.1 mph13.0 kmh 30.05 in1017.6 mb 0.00 in0.0 mm 0.00 in0.0 mm 0.03 in0.8 mm
06:02 PM 25.5°F-3.6°C 21.4°F-5.9°C 84% 4.0 mph NNW6.4 kmh NNW 8.1 mph13.0 kmh 30.05 in1017.6 mb 0.00 in0.0 mm 0.00 in0.0 mm 0.03 in0.8 mm
06:07 PM 25.5°F-3.6°C 21.4°F-5.9°C 84% 2.9 mph NNW4.7 kmh NNW 11.0 mph17.7 kmh 30.05 in1017.6 mb 0.00 in0.0 mm 0.00 in0.0 mm 0.03 in0.8 mm
06:12 PM 25.5°F-3.6°C 21.4°F-5.9°C 84% 2.9 mph N4.7 kmh N 6.0 mph9.7 kmh 30.06 in1017.9 mb 0.00 in0.0 mm 0.00 in0.0 mm 0.03 in0.8 mm
06:17 PM 25.5°F-3.6°C 21.6°F-5.8°C 85% 2.0 mph NW3.2 kmh NW 2.9 mph4.7 kmh 30.07 in1018.3 mb 0.00 in0.0 mm 0.00 in0.0 mm 0.03 in0.8 mm
06:22 PM 25.5°F-3.6°C 21.6°F-5.8°C 85% 0.9 mph N1.4 kmh N 2.9 mph4.7 kmh 30.07 in1018.3 mb 0.00 in0.0 mm 0.00 in0.0 mm 0.03 in0.8 mm
06:27 PM 25.5°F-3.6°C 21.6°F-5.8°C 85% 2.0 mph NW3.2 kmh NW 6.0 mph9.7 kmh 30.06 in1017.9 mb 0.00 in0.0 mm 0.00 in0.0 mm 0.03 in0.8 mm
06:32 PM 25.5°F-3.6°C 21.6°F-5.8°C 85% 2.0 mph N3.2 kmh N 4.9 mph7.9 kmh 30.07 in1018.3 mb 0.00 in0.0 mm 0.00 in0.0 mm 0.03 in0.8 mm
06:37 PM 25.7°F-3.5°C 21.7°F-5.7°C 85% 0.9 mph NNW1.4 kmh NNW 6.0 mph9.7 kmh 30.07 in1018.3 mb 0.00 in0.0 mm 0.00 in0.0 mm 0.03 in0.8 mm
06:42 PM 25.9°F-3.4°C 21.7°F-5.7°C 84% 0.9 mph NE1.4 kmh NE 6.0 mph9.7 kmh 30.07 in1018.3 mb 0.00 in0.0 mm 0.00 in0.0 mm 0.03 in0.8 mm
06:47 PM 25.9°F-3.4°C 21.7°F-5.7°C 84% 2.0 mph N3.2 kmh N 10.0 mph16.1 kmh 30.07 in1018.3 mb 0.00 in0.0 mm 0.00 in0.0 mm 0.03 in0.8 mm
06:53 PM 25.9°F-3.4°C 21.7°F-5.7°C 84% 2.9 mph NNE4.7 kmh NNE 8.1 mph13.0 kmh 30.07 in1018.3 mb 0.00 in0.0 mm 0.00 in0.0 mm 0.03 in0.8 mm
06:58 PM 25.7°F-3.5°C 21.6°F-5.8°C 84% 4.0 mph N6.4 kmh N 11.0 mph17.7 kmh 30.07 in1018.3 mb 0.00 in0.0 mm 0.00 in0.0 mm 0.03 in0.8 mm
07:03 PM 25.5°F-3.6°C 21.4°F-5.9°C 84% 4.0 mph NNE6.4 kmh NNE 8.9 mph14.3 kmh 30.07 in1018.3 mb 0.00 in0.0 mm 0.00 in0.0 mm 0.03 in0.8 mm
07:08 PM 25.5°F-3.6°C 21.4°F-5.9°C 84% 2.9 mph NW4.7 kmh NW 10.0 mph16.1 kmh 30.08 in1018.6 mb 0.00 in0.0 mm 0.00 in0.0 mm 0.03 in0.8 mm
07:13 PM 25.3°F-3.7°C 21.2°F-6.0°C 84% 4.0 mph NW6.4 kmh NW 12.1 mph19.5 kmh 30.08 in1018.6 mb 0.00 in0.0 mm 0.00 in0.0 mm 0.03 in0.8 mm
07:18 PM 25.2°F-3.8°C 21.0°F-6.1°C 84% 4.9 mph NE7.9 kmh NE 8.9 mph14.3 kmh 30.08 in1018.6 mb 0.00 in0.0 mm 0.00 in0.0 mm 0.03 in0.8 mm
07:23 PM 25.0°F-3.9°C 21.2°F-6.0°C 85% 4.0 mph NNE6.4 kmh NNE 8.1 mph13.0 kmh 30.09 in1019.0 mb 0.00 in0.0 mm 0.00 in0.0 mm 0.03 in0.8 mm
07:28 PM 25.0°F-3.9°C 21.2°F-6.0°C 85% 2.0 mph NE3.2 kmh NE 4.9 mph7.9 kmh 30.10 in1019.3 mb 0.00 in0.0 mm 0.00 in0.0 mm 0.03 in0.8 mm
07:33 PM 24.8°F-4.0°C 21.0°F-6.1°C 85% 2.0 mph N3.2 kmh N 6.9 mph11.1 kmh 30.10 in1019.3 mb 0.00 in0.0 mm 0.00 in0.0 mm 0.03 in0.8 mm
07:38 PM 24.6°F-4.1°C 20.8°F-6.2°C 85% 2.0 mph NNE3.2 kmh NNE 8.1 mph13.0 kmh 30.10 in1019.3 mb 0.00 in0.0 mm 0.00 in0.0 mm 0.03 in0.8 mm
07:43 PM 24.6°F-4.1°C 21.0°F-6.1°C 86% 2.9 mph NNW4.7 kmh NNW 6.9 mph11.1 kmh 30.10 in1019.3 mb 0.00 in0.0 mm 0.00 in0.0 mm 0.03 in0.8 mm
07:48 PM 24.4°F-4.2°C 20.8°F-6.2°C 86% 2.9 mph N4.7 kmh N 9.0 mph14.5 kmh 30.10 in1019.3 mb 0.00 in0.0 mm 0.00 in0.0 mm 0.03 in0.8 mm
07:53 PM 24.4°F-4.2°C 20.8°F-6.2°C 86% 2.9 mph WNW4.7 kmh WNW 9.0 mph14.5 kmh 30.10 in1019.3 mb 0.00 in0.0 mm 0.00 in0.0 mm 0.03 in0.8 mm
07:58 PM 24.4°F-4.2°C 20.8°F-6.2°C 86% 2.9 mph N4.7 kmh N 8.1 mph13.0 kmh 30.10 in1019.3 mb 0.00 in0.0 mm 0.00 in0.0 mm 0.03 in0.8 mm
08:03 PM 24.6°F-4.1°C 21.0°F-6.1°C 86% 2.9 mph NW4.7 kmh NW 6.9 mph11.1 kmh 30.10 in1019.3 mb 0.00 in0.0 mm 0.00 in0.0 mm 0.03 in0.8 mm
08:08 PM 24.6°F-4.1°C 21.0°F-6.1°C 86% 2.0 mph NW3.2 kmh NW 4.0 mph6.4 kmh 30.11 in1019.6 mb 0.00 in0.0 mm 0.00 in0.0 mm 0.03 in0.8 mm
08:13 PM 24.6°F-4.1°C 21.0°F-6.1°C 86% 2.0 mph NW3.2 kmh NW 8.1 mph13.0 kmh 30.11 in1019.6 mb 0.00 in0.0 mm 0.00 in0.0 mm 0.03 in0.8 mm
08:18 PM 24.6°F-4.1°C 20.8°F-6.2°C 85% 2.9 mph NE4.7 kmh NE 8.1 mph13.0 kmh 30.10 in1019.3 mb 0.00 in0.0 mm 0.00 in0.0 mm 0.03 in0.8 mm
08:23 PM 24.4°F-4.2°C 20.7°F-6.3°C 85% 2.0 mph NNW3.2 kmh NNW 8.1 mph13.0 kmh 30.10 in1019.3 mb 0.00 in0.0 mm 0.00 in0.0 mm 0.03 in0.8 mm
08:28 PM 24.4°F-4.2°C 20.8°F-6.2°C 86% 2.0 mph NNW3.2 kmh NNW 6.0 mph9.7 kmh 30.10 in1019.3 mb 0.00 in0.0 mm 0.00 in0.0 mm 0.03 in0.8 mm
08:33 PM 24.4°F-4.2°C 20.8°F-6.2°C 86% 0.9 mph N1.4 kmh N 2.9 mph4.7 kmh 30.10 in1019.3 mb 0.00 in0.0 mm 0.00 in0.0 mm 0.03 in0.8 mm
08:38 PM 24.4°F-4.2°C 20.8°F-6.2°C 86% 0.9 mph NNE1.4 kmh NNE 4.0 mph6.4 kmh 30.10 in1019.3 mb 0.00 in0.0 mm 0.00 in0.0 mm 0.03 in0.8 mm
08:43 PM 24.4°F-4.2°C 20.8°F-6.2°C 86% 0.9 mph NNW1.4 kmh NNW 4.0 mph6.4 kmh 30.10 in1019.3 mb 0.00 in0.0 mm 0.00 in0.0 mm 0.03 in0.8 mm
08:48 PM 24.4°F-4.2°C 20.8°F-6.2°C 86% 2.0 mph NW3.2 kmh NW 4.9 mph7.9 kmh 30.10 in1019.3 mb 0.00 in0.0 mm 0.00 in0.0 mm 0.03 in0.8 mm
08:53 PM 24.4°F-4.2°C 20.8°F-6.2°C 86% 0.9 mph N1.4 kmh N 4.0 mph6.4 kmh 30.10 in1019.3 mb 0.00 in0.0 mm 0.00 in0.0 mm 0.03 in0.8 mm
08:58 PM 24.4°F-4.2°C 20.8°F-6.2°C 86% 0.9 mph NNW1.4 kmh NNW 4.9 mph7.9 kmh 30.10 in1019.3 mb 0.00 in0.0 mm 0.00 in0.0 mm 0.03 in0.8 mm
09:03 PM 24.3°F-4.3°C 20.7°F-6.3°C 86% 0.9 mph NNW1.4 kmh NNW 2.9 mph4.7 kmh 30.11 in1019.6 mb 0.00 in0.0 mm 0.00 in0.0 mm 0.03 in0.8 mm
09:08 PM 24.3°F-4.3°C 20.7°F-6.3°C 86% 0.9 mph N1.4 kmh N 4.0 mph6.4 kmh 30.11 in1019.6 mb 0.00 in0.0 mm 0.00 in0.0 mm 0.03 in0.8 mm
09:13 PM 24.3°F-4.3°C 21.0°F-6.1°C 87% 0.9 mph NNW1.4 kmh NNW 2.0 mph3.2 kmh 30.11 in1019.6 mb 0.00 in0.0 mm 0.00 in0.0 mm 0.03 in0.8 mm
09:18 PM 24.3°F-4.3°C 21.0°F-6.1°C 87% Calm Calm 0.9 mph1.4 kmh 30.10 in1019.3 mb 0.00 in0.0 mm 0.00 in0.0 mm 0.03 in0.8 mm
09:23 PM 24.1°F-4.4°C 20.8°F-6.2°C 87% 0.9 mph NW1.4 kmh NW 6.0 mph9.7 kmh 30.11 in1019.6 mb 0.00 in0.0 mm 0.00 in0.0 mm 0.03 in0.8 mm
09:28 PM 23.7°F-4.6°C 19.9°F-6.7°C 85% 0.9 mph NE1.4 kmh NE 6.0 mph9.7 kmh 30.11 in1019.6 mb 0.00 in0.0 mm 0.00 in0.0 mm 0.03 in0.8 mm
09:33 PM 23.4°F-4.8°C 19.6°F-6.9°C 85% 2.0 mph NW3.2 kmh NW 8.1 mph13.0 kmh 30.12 in1020.0 mb 0.00 in0.0 mm 0.00 in0.0 mm 0.03 in0.8 mm
09:38 PM 23.2°F-4.9°C 19.4°F-7.0°C 85% 2.0 mph N3.2 kmh N 4.0 mph6.4 kmh 30.12 in1020.0 mb 0.00 in0.0 mm 0.00 in0.0 mm 0.03 in0.8 mm
09:43 PM 22.8°F-5.1°C 19.0°F-7.2°C 85% 0.9 mph NNE1.4 kmh NNE 2.0 mph3.2 kmh 30.11 in1019.6 mb 0.00 in0.0 mm 0.00 in0.0 mm 0.03 in0.8 mm
09:48 PM 22.5°F-5.3°C 18.7°F-7.4°C 85% 0.9 mph N1.4 kmh N 4.9 mph7.9 kmh 30.11 in1019.6 mb 0.00 in0.0 mm 0.00 in0.0 mm 0.03 in0.8 mm
09:53 PM 22.3°F-5.4°C 18.5°F-7.5°C 85% 2.0 mph N3.2 kmh N 6.0 mph9.7 kmh 30.12 in1020.0 mb 0.00 in0.0 mm 0.00 in0.0 mm 0.03 in0.8 mm
09:58 PM 22.3°F-5.4°C 18.5°F-7.5°C 85% 0.9 mph NW1.4 kmh NW 4.9 mph7.9 kmh 30.12 in1020.0 mb 0.00 in0.0 mm 0.00 in0.0 mm 0.03 in0.8 mm
10:03 PM 22.1°F-5.5°C 18.3°F-7.6°C 85% 0.9 mph N1.4 kmh N 4.9 mph7.9 kmh 30.12 in1020.0 mb 0.00 in0.0 mm 0.00 in0.0 mm 0.03 in0.8 mm
10:08 PM 21.9°F-5.6°C 18.1°F-7.7°C 85% 0.9 mph NNW1.4 kmh NNW 4.9 mph7.9 kmh 30.12 in1020.0 mb 0.00 in0.0 mm 0.00 in0.0 mm 0.03 in0.8 mm
10:13 PM 21.6°F-5.8°C 17.8°F-7.9°C 85% 0.9 mph NNW1.4 kmh NNW 4.0 mph6.4 kmh 30.12 in1020.0 mb 0.00 in0.0 mm 0.00 in0.0 mm 0.03 in0.8 mm
10:18 PM 21.4°F-5.9°C 17.6°F-8.0°C 85% 0.9 mph NW1.4 kmh NW 2.0 mph3.2 kmh 30.13 in1020.3 mb 0.00 in0.0 mm 0.00 in0.0 mm 0.03 in0.8 mm
10:23 PM 21.2°F-6.0°C 17.4°F-8.1°C 85% Calm Calm 2.9 mph4.7 kmh 30.13 in1020.3 mb 0.00 in0.0 mm 0.00 in0.0 mm 0.03 in0.8 mm
10:28 PM 20.8°F-6.2°C 17.1°F-8.3°C 85% Calm Calm 0.9 mph1.4 kmh 30.13 in1020.3 mb 0.00 in0.0 mm 0.00 in0.0 mm 0.03 in0.8 mm
10:33 PM 20.7°F-6.3°C 17.1°F-8.3°C 86% Calm Calm 2.0 mph3.2 kmh 30.12 in1020.0 mb 0.00 in0.0 mm 0.00 in0.0 mm 0.03 in0.8 mm
10:38 PM 20.7°F-6.3°C 17.1°F-8.3°C 86% Calm Calm 0.9 mph1.4 kmh 30.13 in1020.3 mb 0.00 in0.0 mm 0.00 in0.0 mm 0.03 in0.8 mm
10:43 PM 20.5°F-6.4°C 16.9°F-8.4°C 86% Calm Calm 2.0 mph3.2 kmh 30.13 in1020.3 mb 0.00 in0.0 mm 0.00 in0.0 mm 0.03 in0.8 mm
10:48 PM 20.1°F-6.6°C 16.7°F-8.5°C 86% Calm Calm 0.9 mph1.4 kmh 30.13 in1020.3 mb 0.00 in0.0 mm 0.00 in0.0 mm 0.03 in0.8 mm
10:53 PM 20.1°F-6.6°C 16.7°F-8.5°C 86% Calm Calm 0.9 mph1.4 kmh 30.13 in1020.3 mb 0.00 in0.0 mm 0.00 in0.0 mm 0.03 in0.8 mm
10:58 PM 19.9°F-6.7°C 16.5°F-8.6°C 86% Calm Calm 0.9 mph1.4 kmh 30.13 in1020.3 mb 0.00 in0.0 mm 0.00 in0.0 mm 0.03 in0.8 mm
11:03 PM 19.9°F-6.7°C 16.5°F-8.6°C 86% Calm Calm 0.9 mph1.4 kmh 30.13 in1020.3 mb 0.00 in0.0 mm 0.00 in0.0 mm 0.03 in0.8 mm
11:08 PM 19.8°F-6.8°C 16.3°F-8.7°C 86% Calm Calm 0.9 mph1.4 kmh 30.14 in1020.7 mb 0.00 in0.0 mm 0.00 in0.0 mm 0.03 in0.8 mm
11:13 PM 19.6°F-6.9°C 16.2°F-8.8°C 86% Calm Calm 0.9 mph1.4 kmh 30.14 in1020.7 mb 0.00 in0.0 mm 0.00 in0.0 mm 0.03 in0.8 mm
11:18 PM 19.6°F-6.9°C 16.2°F-8.8°C 86% Calm Calm 0.9 mph1.4 kmh 30.14 in1020.7 mb 0.00 in0.0 mm 0.00 in0.0 mm 0.03 in0.8 mm
11:23 PM 19.4°F-7.0°C 16.0°F-8.9°C 86% Calm Calm -- 30.15 in1021.0 mb 0.00 in0.0 mm 0.00 in0.0 mm 0.03 in0.8 mm
11:28 PM 19.2°F-7.1°C 15.8°F-9.0°C 86% Calm Calm 1.0 mph1.6 kmh 30.15 in1021.0 mb 0.00 in0.0 mm 0.00 in0.0 mm 0.03 in0.8 mm
11:33 PM 19.2°F-7.1°C 15.8°F-9.0°C 86% Calm Calm 0.9 mph1.4 kmh 30.15 in1021.0 mb 0.00 in0.0 mm 0.00 in0.0 mm 0.03 in0.8 mm
11:38 PM 19.0°F-7.2°C 15.6°F-9.1°C 86% Calm Calm 0.9 mph1.4 kmh 30.15 in1021.0 mb 0.00 in0.0 mm 0.00 in0.0 mm 0.03 in0.8 mm
11:43 PM 18.9°F-7.3°C 15.4°F-9.2°C 86% Calm Calm 0.9 mph1.4 kmh 30.15 in1021.0 mb 0.00 in0.0 mm 0.00 in0.0 mm 0.03 in0.8 mm
11:48 PM 18.9°F-7.3°C 15.4°F-9.2°C 86% Calm Calm 2.9 mph4.7 kmh 30.15 in1021.0 mb 0.00 in0.0 mm 0.00 in0.0 mm 0.03 in0.8 mm
11:53 PM 18.7°F-7.4°C 15.3°F-9.3°C 86% Calm Calm 2.0 mph3.2 kmh 30.15 in1021.0 mb 0.00 in0.0 mm 0.00 in0.0 mm 0.03 in0.8 mm
11:58 PM 18.7°F-7.4°C 15.3°F-9.3°C 86% Calm Calm 0.9 mph1.4 kmh 30.15 in1021.0 mb 0.00 in0.0 mm 0.00 in0.0 mm 0.03 in0.8 mm